This is the latest recevied weather packets stored in our database for station/object DG0PX-12. If no packets are shown the sender has not sent any weather packets the latest 10 day(s).
| Time | Temp. | Humidity | Pressure | Rain* | Wind** | Luminosity | Snow |
|---|---|---|---|---|---|---|---|
| 1788011089 | 33.33° C | 21% | 950.3 hPa | - | - | - | - |
| 1788010189 | 35.56° C | 19% | 950.7 hPa | - | - | - | - |
| 1788009289 | 32.22° C | 23% | 950.7 hPa | - | - | - | - |
| 1788008389 | 31.67° C | 27% | 950.5 hPa | - | - | - | - |
| 1788007489 | 32.78° C | 26% | 950.6 hPa | - | - | - | - |
| 1788006589 | 35.56° C | 22% | 951 hPa | - | - | - | - |
| 1788005689 | 32.22° C | 28% | 950.9 hPa | - | - | - | - |
| 1788004789 | 35° C | 25% | 951.1 hPa | - | - | - | - |
| 1788003889 | 33.33° C | 26% | 951.3 hPa | - | - | - | - |
| 1788002989 | 32.22° C | 27% | 951.2 hPa | - | - | - | - |
| 1788002088 | 28.89° C | 31% | 951.3 hPa | - | - | - | - |
| 1788001188 | 31.67° C | 28% | 951.5 hPa | - | - | - | - |
| 1788000288 | 32.22° C | 27% | 951.7 hPa | - | - | - | - |
| 1787999388 | 31.11° C | 29% | 951.7 hPa | - | - | - | - |
| 1787998488 | 30.56° C | 30% | 951.8 hPa | - | - | - | - |
| 1787997588 | 28.33° C | 34% | 951.7 hPa | - | - | - | - |
| 1787996688 | 28.89° C | 33% | 951.9 hPa | - | - | - | - |
| 1787995788 | 27.78° C | 36% | 951.7 hPa | - | - | - | - |
| 1787994888 | 27.78° C | 35% | 951.9 hPa | - | - | - | - |
| 1787993988 | 26.67° C | 39% | 951.7 hPa | - | - | - | - |
| 1787993088 | 26.67° C | 37% | 951.8 hPa | - | - | - | - |
| 1787992188 | 27.78° C | 37% | 951.9 hPa | - | - | - | - |
| 1787991288 | 28.33° C | 35% | 952 hPa | - | - | - | - |
| 1787990388 | 27.78° C | 36% | 952 hPa | - | - | - | - |
| 1787989488 | 27.22° C | 40% | 951.6 hPa | - | - | - | - |
* Rain since midnight (hover to see other rain measurements)
** Current wind speed in m/s (hover to see current wind gust speed)